Logo AVAMET
Benvolgut visitant, si us plau, ingressa Recuperar contrasenya
AVAMET paisatges

Gandia Roís de Corella

Dades diàries. Acumulats / Últims 30 dies disponibles

Data Temperatura (°C) Humitat rel. (%) Pressió rel. (hPa) Vent (km/h) Precipitació
Mínima Mitjana Màxima Amplitud
tèrmica
Mínima Mitjana Màxima Mínima Mitjana Màxima Predom. Mitjana Ràfega
màxima
Total
(mm)
Índex-n
Mínima Mitjana Màxima Mínima Mitjana Màxima n
0 a 1
P0 max
mm 5'
Dades mensuals acumulades fins l'últim dia disponible
02/2020 5,5 9,4 16,4 15,0 14,6 21,4 27,9 22,4 19 69 95 1.011 1.025 1.035   3,7 48,3 1,6
Dades anuals acumulades fins l'últim dia disponible
2020 2,0 8,4 16,4 13,1 12,0 18,9 27,9 25,9 19 73 97 1.011 1.025 1.035   4,0 64,4 264,4
Últims 30 dies disponibles
29-02-2020 8,1     15,6     26,3 18,2 25 61 88 1.011 1.015 1.018 OSO 2,9 27,4 0,0
28-02-2020 11,5     18,4     23,7 12,2 28 47 76 1.018 1.020 1.022 S 3,7 37,0 0,0
27-02-2020 9,3     18,0     24,3 15,0 29 40 66 1.017 1.020 1.021 OSO 8,6 33,8 0,0
26-02-2020 13,7     18,4     23,3 9,6 25 42 59 1.017 1.018 1.021 O 9,8 40,2 0,0
25-02-2020 8,8     20,5     26,2 17,4 19 34 77 1.015 1.017 1.021 SO 8,7 40,2 0,0
24-02-2020 6,2     13,6     22,9 16,7 34 65 88 1.021 1.026 1.031 S 0,5 11,3 0,0
23-02-2020 6,4     12,1     20,3 13,9 47 76 95 1.030 1.033 1.035 SSO 1,5 16,1 0,2
22-02-2020 5,9     12,0     21,5 15,6 41 76 93 1.030 1.032 1.034 SO 0,9 14,5 0,2
21-02-2020 6,6     11,3     17,1 10,5 67 84 94 1.027 1.030 1.032 SSO 1,4 14,5 0,2
20-02-2020 6,2     11,5     18,4 12,2 63 82 95 1.024 1.026 1.029 SSO 0,8 12,9 0,2
19-02-2020 8,8     12,7     15,8 7,0 70 83 93 1.029 1.030 1.032 S 2,1 12,9 0,0
17-02-2020 8,4     11,6     22,1 13,7 49 87 95 1.025 1.026 1.026 OSO 1,0 19,3 0,2
16-02-2020 10,3     14,0     22,7 12,4 60 85 95 1.024 1.027 1.028 S 0,8 11,3 0,2
15-02-2020 7,2     12,9     20,5 13,3 65 82 92 1.025 1.026 1.028 SSO 1,0 12,9 0,0
14-02-2020 9,7     15,3     20,9 11,2 47 66 86 1.024 1.025 1.026 SSE 1,4 20,9 0,0
13-02-2020 9,5     16,1     23,4 13,9 43 70 94 1.020 1.023 1.024 OSO 3,6 32,2 0,0
12-02-2020 10,4     14,1     19,4 9,0 61 81 90 1.023 1.024 1.026 SSO 1,2 16,1 0,0
11-02-2020 12,4     18,9     24,3 11,9 42 60 86 1.022 1.024 1.026 SSO 6,5 43,5 0,0
10-02-2020 15,8     19,3     24,9 9,1 45 54 68 1.026 1.028 1.031 OSO 12,3 43,5 0,0
09-02-2020 7,4     12,3     16,9 9,5 58 82 94 1.027 1.030 1.032 SSO 1,3 19,3 0,0
08-02-2020 5,5     10,7     16,2 10,7 68 84 93 1.024 1.025 1.028 SSO 0,9 11,3 0,2
07-02-2020 6,9     10,5     16,1 9,2 58 81 91 1.023 1.025 1.027 SO 0,6 12,9 0,0
06-02-2020 6,4     9,9     14,6 8,2 74 86 94 1.025 1.027 1.029 SSO 1,3 12,9 0,2
05-02-2020 8,1     12,1     15,4 7,3 70 80 92 1.028 1.029 1.031 S 1,4 17,7 0,0
04-02-2020 13,1     21,3     27,9 14,8 26 44 81 1.022 1.025 1.027 OSO 7,8 48,3 0,0
03-02-2020 11,3     16,9     25,3 14,0 41 68 83 1.026 1.028 1.030 SO 0,6 9,7 0,0
02-02-2020 13,9     19,0     25,8 11,9 46 64 82 1.026 1.027 1.029 SO 7,8 40,2 0,0
01-02-2020 16,4     19,7     23,4 7,0 53 61 71 1.021 1.023 1.026 O 12,0 37,0 0,0
31-01-2020 15,2     17,8     20,8 5,6 53 59 66 1.022 1.023 1.024 O 13,5 45,1 0,0
30-01-2020 16,2     18,3     22,7 6,5 40 54 63 1.020 1.022 1.023 OSO 12,3 43,5 0,0
Últims 13 mesos disponibles
02/2020 5,5 9,4 16,4 15,0 14,6 21,4 27,9 22,4 34 69 87 1.015 1.025 1.033 SSO 3,7 48,3 1,6
01/2020 2,0 7,5 16,2 11,5 12,0 16,6 22,7 20,7 50 76 93 1.015 1.025 1.033 SO 4,3 64,4 262,8
12/2019 5,1 10,6 20,2 14,2 13,4 18,6 26,3 21,2 47 70 90 1.002 1.019 1.033 SO 5,0 77,2 261,2
11/2019 6,6 12,9 22,1 16,3 16,3 20,4 27,8 21,2 44 55 77 999 1.011 1.019 OSO 7,2 62,8 7,8
10/2019 11,1 15,8 19,6 20,4 16,6 25,7 32,9 21,8 44 70 86 1.008 1.017 1.022 SSO 2,7 40,2 57,8
09/2019 14,9 19,8 22,8 24,0 23,8 28,6 36,1 21,2 45 76 91 1.010 1.018 1.024 SSO 3,1 46,7 100,4
08/2019 18,5 22,1 27,6 27,1 28,1 32,6 40,0 21,5 48 71 81 1.010 1.016 1.020 S 2,8 41,8 50,2
07/2019 19,9 22,4 26,3 27,5 29,2 32,5 38,3 18,4 43 67 78 1.006 1.014 1.021 SSE 3,3 38,6 1,0
06/2019 12,4 17,1 22,2 23,3 21,9 28,9 35,9 23,5 34 65 80 1.009 1.015 1.022 S 3,1 45,1 0,0
05/2019 8,7 14,1 22,8 19,5 19,8 25,2 32,3 23,6 45 66 81 1.005 1.015 1.024 SSE 3,2 43,5 7,8
04/2019 8,3 11,6 15,1 16,1 14,5 21,0 29,9 21,6 38 66 95 1.000 1.013 1.025 SSO 4,6 53,1 234,0
03/2019 5,3 8,3 15,0 14,4 14,1 20,8 29,1 23,8 36 61 92 1.010 1.023 1.030 S 3,0 53,1 52,4
02/2019 4,2 6,5 11,6 12,0 14,1 18,3 24,1 19,9 32 65 83 995 1.025 1.034 SO 3,1 74,0 0,4
Tots els anys disponibles
2019 -0,2 14,0 27,6 18,9 12,6 24,2 40,0 40,2 32 66 95 995 1.017 1.034 S 3,8 77,2 773,4
Temperatura (°C)
Humitat relativa (%)
Pressió (hPa)
Precipitació (mm)
Nota sobre les dades: s'avisa a l'usuari de la provisionalitat i no oficialitat d'aquestes dades
Logo AVAMET blanc
Web allotjada a Sollutia
Llicència de Creative CommonsLa web d'AVAMET i els seus continguts estan subjectes a una llicència de
Reconeixement - No Comercial - Compartir igual
Últimes estacions:  Altea - Com. Regants (Soci), Almoines (Inforatge), Beniparrell (Inforatge), Albal (Inforatge), Almussafes - Parc Industrial (Inforatge), La Vilavella (Soci), la Serratella (soci) - - -